sensor_id;sensor_type;location;lat;lon;timestamp;P1;durP1;ratioP1;P2;durP2;ratioP2
7047;SDS011;3565;53.254;10.352;2022-08-21T00:01:57;5.40;;;3.37;;
7047;SDS011;3565;53.254;10.352;2022-08-21T00:04:26;4.60;;;3.00;;
7047;SDS011;3565;53.254;10.352;2022-08-21T00:06:55;3.50;;;3.20;;
7047;SDS011;3565;53.254;10.352;2022-08-21T00:09:25;4.30;;;3.00;;
7047;SDS011;3565;53.254;10.352;2022-08-21T00:11:54;4.30;;;3.40;;
7047;SDS011;3565;53.254;10.352;2022-08-21T00:14:22;4.67;;;3.50;;
7047;SDS011;3565;53.254;10.352;2022-08-21T00:17:03;5.03;;;3.40;;
7047;SDS011;3565;53.254;10.352;2022-08-21T00:19:33;4.10;;;3.40;;
7047;SDS011;3565;53.254;10.352;2022-08-21T00:22:02;3.50;;;3.17;;
7047;SDS011;3565;53.254;10.352;2022-08-21T00:24:31;3.87;;;3.37;;
7047;SDS011;3565;53.254;10.352;2022-08-21T00:27:00;4.27;;;3.43;;
7047;SDS011;3565;53.254;10.352;2022-08-21T00:29:29;6.77;;;4.00;;
7047;SDS011;3565;53.254;10.352;2022-08-21T00:31:58;4.87;;;3.47;;
7047;SDS011;3565;53.254;10.352;2022-08-21T00:34:27;5.43;;;3.63;;
7047;SDS011;3565;53.254;10.352;2022-08-21T00:36:56;3.57;;;3.07;;
7047;SDS011;3565;53.254;10.352;2022-08-21T00:39:25;4.47;;;2.90;;
7047;SDS011;3565;53.254;10.352;2022-08-21T00:41:54;5.00;;;3.37;;
7047;SDS011;3565;53.254;10.352;2022-08-21T00:44:23;4.37;;;3.27;;
7047;SDS011;3565;53.254;10.352;2022-08-21T00:46:52;5.77;;;3.07;;
7047;SDS011;3565;53.254;10.352;2022-08-21T00:49:20;3.03;;;2.73;;
7047;SDS011;3565;53.254;10.352;2022-08-21T00:51:49;3.80;;;3.37;;
7047;SDS011;3565;53.254;10.352;2022-08-21T00:54:18;4.97;;;3.20;;
7047;SDS011;3565;53.254;10.352;2022-08-21T00:56:53;6.17;;;3.27;;
7047;SDS011;3565;53.254;10.352;2022-08-21T00:59:23;4.70;;;3.43;;
7047;SDS011;3565;53.254;10.352;2022-08-21T01:01:53;3.77;;;3.37;;
7047;SDS011;3565;53.254;10.352;2022-08-21T01:04:21;4.50;;;3.37;;
7047;SDS011;3565;53.254;10.352;2022-08-21T01:06:50;3.17;;;2.83;;
7047;SDS011;3565;53.254;10.352;2022-08-21T01:09:21;3.53;;;3.00;;
7047;SDS011;3565;53.254;10.352;2022-08-21T01:11:50;4.17;;;3.27;;
7047;SDS011;3565;53.254;10.352;2022-08-21T01:14:18;3.47;;;3.10;;
7047;SDS011;3565;53.254;10.352;2022-08-21T01:16:48;5.87;;;3.10;;
7047;SDS011;3565;53.254;10.352;2022-08-21T01:19:16;3.90;;;3.27;;
7047;SDS011;3565;53.254;10.352;2022-08-21T01:21:47;4.93;;;3.50;;
7047;SDS011;3565;53.254;10.352;2022-08-21T01:24:16;6.47;;;3.33;;
7047;SDS011;3565;53.254;10.352;2022-08-21T01:26:46;4.57;;;3.30;;
7047;SDS011;3565;53.254;10.352;2022-08-21T01:29:16;5.60;;;2.90;;
7047;SDS011;3565;53.254;10.352;2022-08-21T01:31:45;4.90;;;3.30;;
7047;SDS011;3565;53.254;10.352;2022-08-21T01:34:15;3.97;;;3.57;;
7047;SDS011;3565;53.254;10.352;2022-08-21T01:36:44;6.27;;;3.33;;
7047;SDS011;3565;53.254;10.352;2022-08-21T01:39:14;5.47;;;3.57;;
7047;SDS011;3565;53.254;10.352;2022-08-21T01:41:43;4.67;;;3.53;;
7047;SDS011;3565;53.254;10.352;2022-08-21T01:44:12;5.00;;;3.50;;
7047;SDS011;3565;53.254;10.352;2022-08-21T01:46:40;4.03;;;3.30;;
7047;SDS011;3565;53.254;10.352;2022-08-21T01:49:08;3.57;;;3.27;;
7047;SDS011;3565;53.254;10.352;2022-08-21T01:51:37;6.13;;;3.53;;
7047;SDS011;3565;53.254;10.352;2022-08-21T01:54:06;3.63;;;3.20;;
7047;SDS011;3565;53.254;10.352;2022-08-21T01:56:36;5.53;;;3.70;;
7047;SDS011;3565;53.254;10.352;2022-08-21T01:59:04;4.47;;;3.40;;
7047;SDS011;3565;53.254;10.352;2022-08-21T02:01:32;3.87;;;3.23;;
7047;SDS011;3565;53.254;10.352;2022-08-21T02:04:01;5.83;;;3.90;;
7047;SDS011;3565;53.254;10.352;2022-08-21T02:06:31;5.80;;;3.90;;
7047;SDS011;3565;53.254;10.352;2022-08-21T02:08:59;5.30;;;3.70;;
7047;SDS011;3565;53.254;10.352;2022-08-21T02:11:27;6.23;;;3.90;;
7047;SDS011;3565;53.254;10.352;2022-08-21T02:13:55;3.97;;;3.30;;
7047;SDS011;3565;53.254;10.352;2022-08-21T02:16:24;5.63;;;3.70;;
7047;SDS011;3565;53.254;10.352;2022-08-21T02:18:52;4.67;;;3.70;;
7047;SDS011;3565;53.254;10.352;2022-08-21T02:21:22;5.67;;;3.90;;
7047;SDS011;3565;53.254;10.352;2022-08-21T02:23:50;4.03;;;3.63;;
7047;SDS011;3565;53.254;10.352;2022-08-21T02:26:17;6.33;;;3.70;;
7047;SDS011;3565;53.254;10.352;2022-08-21T02:28:46;7.10;;;3.70;;
7047;SDS011;3565;53.254;10.352;2022-08-21T02:31:16;5.10;;;3.90;;
7047;SDS011;3565;53.254;10.352;2022-08-21T02:33:44;6.03;;;3.60;;
7047;SDS011;3565;53.254;10.352;2022-08-21T02:36:13;4.23;;;3.37;;
7047;SDS011;3565;53.254;10.352;2022-08-21T02:38:41;4.13;;;3.20;;
7047;SDS011;3565;53.254;10.352;2022-08-21T02:41:12;6.17;;;3.67;;
7047;SDS011;3565;53.254;10.352;2022-08-21T02:43:43;4.70;;;3.87;;
7047;SDS011;3565;53.254;10.352;2022-08-21T02:46:13;7.53;;;3.90;;
7047;SDS011;3565;53.254;10.352;2022-08-21T02:48:41;5.63;;;3.60;;
7047;SDS011;3565;53.254;10.352;2022-08-21T02:51:13;5.07;;;3.50;;
7047;SDS011;3565;53.254;10.352;2022-08-21T02:53:41;4.43;;;3.93;;
7047;SDS011;3565;53.254;10.352;2022-08-21T02:56:12;4.00;;;3.60;;
7047;SDS011;3565;53.254;10.352;2022-08-21T02:58:43;5.90;;;3.63;;
7047;SDS011;3565;53.254;10.352;2022-08-21T03:01:13;6.07;;;3.60;;
7047;SDS011;3565;53.254;10.352;2022-08-21T03:03:42;6.63;;;3.50;;
7047;SDS011;3565;53.254;10.352;2022-08-21T03:06:11;4.17;;;3.50;;
7047;SDS011;3565;53.254;10.352;2022-08-21T03:08:41;3.87;;;3.40;;
7047;SDS011;3565;53.254;10.352;2022-08-21T03:11:12;4.27;;;3.30;;
7047;SDS011;3565;53.254;10.352;2022-08-21T03:13:40;4.70;;;3.90;;
7047;SDS011;3565;53.254;10.352;2022-08-21T03:16:08;5.00;;;3.70;;
7047;SDS011;3565;53.254;10.352;2022-08-21T03:18:37;5.47;;;3.80;;
7047;SDS011;3565;53.254;10.352;2022-08-21T03:21:06;4.87;;;3.63;;
7047;SDS011;3565;53.254;10.352;2022-08-21T03:23:35;4.77;;;4.03;;
7047;SDS011;3565;53.254;10.352;2022-08-21T03:26:03;5.63;;;4.07;;
7047;SDS011;3565;53.254;10.352;2022-08-21T03:28:31;5.73;;;3.73;;
7047;SDS011;3565;53.254;10.352;2022-08-21T03:31:00;7.63;;;3.80;;
7047;SDS011;3565;53.254;10.352;2022-08-21T03:33:28;5.03;;;3.50;;
7047;SDS011;3565;53.254;10.352;2022-08-21T03:35:58;5.13;;;3.93;;
7047;SDS011;3565;53.254;10.352;2022-08-21T03:38:29;4.27;;;3.90;;
7047;SDS011;3565;53.254;10.352;2022-08-21T03:40:58;8.97;;;4.00;;
7047;SDS011;3565;53.254;10.352;2022-08-21T03:43:27;4.00;;;3.57;;
7047;SDS011;3565;53.254;10.352;2022-08-21T03:45:57;5.17;;;3.90;;
7047;SDS011;3565;53.254;10.352;2022-08-21T03:48:25;4.33;;;3.73;;
7047;SDS011;3565;53.254;10.352;2022-08-21T03:50:53;5.53;;;3.77;;
7047;SDS011;3565;53.254;10.352;2022-08-21T03:53:22;4.43;;;3.63;;
7047;SDS011;3565;53.254;10.352;2022-08-21T03:55:50;3.83;;;3.43;;
7047;SDS011;3565;53.254;10.352;2022-08-21T03:58:22;5.30;;;3.50;;
7047;SDS011;3565;53.254;10.352;2022-08-21T04:00:50;4.63;;;3.80;;
7047;SDS011;3565;53.254;10.352;2022-08-21T04:03:18;6.10;;;3.87;;
7047;SDS011;3565;53.254;10.352;2022-08-21T04:05:48;4.10;;;3.40;;
7047;SDS011;3565;53.254;10.352;2022-08-21T04:08:16;5.40;;;3.90;;
7047;SDS011;3565;53.254;10.352;2022-08-21T04:10:46;8.23;;;3.80;;
7047;SDS011;3565;53.254;10.352;2022-08-21T04:13:15;4.47;;;3.80;;
7047;SDS011;3565;53.254;10.352;2022-08-21T04:15:42;4.33;;;3.50;;
7047;SDS011;3565;53.254;10.352;2022-08-21T04:18:11;5.73;;;3.77;;
7047;SDS011;3565;53.254;10.352;2022-08-21T04:20:41;4.50;;;3.60;;
7047;SDS011;3565;53.254;10.352;2022-08-21T04:23:09;5.73;;;3.90;;
7047;SDS011;3565;53.254;10.352;2022-08-21T04:25:37;5.37;;;3.87;;
7047;SDS011;3565;53.254;10.352;2022-08-21T04:28:07;3.97;;;3.57;;
7047;SDS011;3565;53.254;10.352;2022-08-21T04:30:35;5.30;;;4.03;;
7047;SDS011;3565;53.254;10.352;2022-08-21T04:33:03;4.60;;;3.57;;
7047;SDS011;3565;53.254;10.352;2022-08-21T04:35:31;5.67;;;3.60;;
7047;SDS011;3565;53.254;10.352;2022-08-21T04:37:59;5.03;;;3.60;;
7047;SDS011;3565;53.254;10.352;2022-08-21T04:40:27;4.57;;;3.90;;
7047;SDS011;3565;53.254;10.352;2022-08-21T04:42:59;5.67;;;4.03;;
7047;SDS011;3565;53.254;10.352;2022-08-21T04:45:27;3.97;;;3.60;;
7047;SDS011;3565;53.254;10.352;2022-08-21T04:47:58;5.33;;;4.00;;
7047;SDS011;3565;53.254;10.352;2022-08-21T04:50:27;4.03;;;3.60;;
7047;SDS011;3565;53.254;10.352;2022-08-21T04:52:58;3.60;;;3.30;;
7047;SDS011;3565;53.254;10.352;2022-08-21T04:55:28;4.17;;;3.73;;
7047;SDS011;3565;53.254;10.352;2022-08-21T04:57:57;5.07;;;4.03;;
7047;SDS011;3565;53.254;10.352;2022-08-21T05:00:28;4.10;;;3.70;;
7047;SDS011;3565;53.254;10.352;2022-08-21T05:02:57;5.23;;;3.67;;
7047;SDS011;3565;53.254;10.352;2022-08-21T05:05:28;4.67;;;3.70;;
7047;SDS011;3565;53.254;10.352;2022-08-21T05:07:57;4.10;;;3.43;;
7047;SDS011;3565;53.254;10.352;2022-08-21T05:10:29;4.50;;;3.70;;
7047;SDS011;3565;53.254;10.352;2022-08-21T05:12:58;3.73;;;3.30;;
7047;SDS011;3565;53.254;10.352;2022-08-21T05:15:28;7.30;;;4.23;;
7047;SDS011;3565;53.254;10.352;2022-08-21T05:17:58;4.77;;;3.57;;
7047;SDS011;3565;53.254;10.352;2022-08-21T05:20:27;5.60;;;3.83;;
7047;SDS011;3565;53.254;10.352;2022-08-21T05:22:56;6.10;;;3.40;;
7047;SDS011;3565;53.254;10.352;2022-08-21T05:25:25;4.23;;;3.43;;
7047;SDS011;3565;53.254;10.352;2022-08-21T05:27:54;5.67;;;3.70;;
7047;SDS011;3565;53.254;10.352;2022-08-21T05:30:23;5.30;;;4.00;;
7047;SDS011;3565;53.254;10.352;2022-08-21T05:32:55;5.50;;;3.87;;
7047;SDS011;3565;53.254;10.352;2022-08-21T05:35:24;6.60;;;3.70;;
7047;SDS011;3565;53.254;10.352;2022-08-21T05:37:52;5.07;;;3.97;;
7047;SDS011;3565;53.254;10.352;2022-08-21T05:40:22;4.20;;;3.57;;
7047;SDS011;3565;53.254;10.352;2022-08-21T05:42:52;5.17;;;3.50;;
7047;SDS011;3565;53.254;10.352;2022-08-21T05:45:21;3.93;;;3.40;;
7047;SDS011;3565;53.254;10.352;2022-08-21T05:47:52;5.40;;;3.60;;
7047;SDS011;3565;53.254;10.352;2022-08-21T05:50:20;3.70;;;3.23;;
7047;SDS011;3565;53.254;10.352;2022-08-21T05:52:49;4.63;;;3.33;;
7047;SDS011;3565;53.254;10.352;2022-08-21T05:55:18;4.03;;;3.13;;
7047;SDS011;3565;53.254;10.352;2022-08-21T05:57:47;5.17;;;3.43;;
7047;SDS011;3565;53.254;10.352;2022-08-21T06:00:16;4.30;;;2.70;;
7047;SDS011;3565;53.254;10.352;2022-08-21T06:02:45;4.70;;;3.07;;
7047;SDS011;3565;53.254;10.352;2022-08-21T06:05:14;3.97;;;3.07;;
7047;SDS011;3565;53.254;10.352;2022-08-21T06:07:43;5.73;;;3.40;;
7047;SDS011;3565;53.254;10.352;2022-08-21T06:10:12;4.57;;;2.90;;
7047;SDS011;3565;53.254;10.352;2022-08-21T06:12:42;3.90;;;2.90;;
7047;SDS011;3565;53.254;10.352;2022-08-21T06:15:11;6.20;;;3.40;;
7047;SDS011;3565;53.254;10.352;2022-08-21T06:17:39;4.03;;;3.17;;
7047;SDS011;3565;53.254;10.352;2022-08-21T06:20:09;4.67;;;3.30;;
7047;SDS011;3565;53.254;10.352;2022-08-21T06:22:37;3.93;;;3.00;;
7047;SDS011;3565;53.254;10.352;2022-08-21T06:25:06;4.90;;;3.20;;
7047;SDS011;3565;53.254;10.352;2022-08-21T06:27:36;3.50;;;3.17;;
7047;SDS011;3565;53.254;10.352;2022-08-21T06:30:06;3.93;;;3.53;;
7047;SDS011;3565;53.254;10.352;2022-08-21T06:32:37;5.13;;;3.17;;
7047;SDS011;3565;53.254;10.352;2022-08-21T06:35:05;5.77;;;3.00;;
7047;SDS011;3565;53.254;10.352;2022-08-21T06:37:35;4.37;;;3.10;;
7047;SDS011;3565;53.254;10.352;2022-08-21T06:40:04;3.93;;;2.90;;
7047;SDS011;3565;53.254;10.352;2022-08-21T06:42:32;4.17;;;3.07;;
7047;SDS011;3565;53.254;10.352;2022-08-21T06:45:01;6.27;;;3.20;;
7047;SDS011;3565;53.254;10.352;2022-08-21T06:47:30;4.13;;;3.20;;
7047;SDS011;3565;53.254;10.352;2022-08-21T06:49:59;4.20;;;3.10;;
7047;SDS011;3565;53.254;10.352;2022-08-21T06:52:28;4.70;;;3.43;;
7047;SDS011;3565;53.254;10.352;2022-08-21T06:54:57;4.80;;;3.00;;
7047;SDS011;3565;53.254;10.352;2022-08-21T06:57:26;3.10;;;2.80;;
7047;SDS011;3565;53.254;10.352;2022-08-21T06:59:55;3.77;;;2.70;;
7047;SDS011;3565;53.254;10.352;2022-08-21T07:02:24;5.87;;;2.53;;
7047;SDS011;3565;53.254;10.352;2022-08-21T07:04:53;3.97;;;2.80;;
7047;SDS011;3565;53.254;10.352;2022-08-21T07:07:22;3.47;;;2.03;;
7047;SDS011;3565;53.254;10.352;2022-08-21T07:09:51;4.57;;;2.50;;
7047;SDS011;3565;53.254;10.352;2022-08-21T07:12:20;3.30;;;2.10;;
7047;SDS011;3565;53.254;10.352;2022-08-21T07:14:49;4.77;;;2.10;;
7047;SDS011;3565;53.254;10.352;2022-08-21T07:17:17;4.77;;;2.47;;
7047;SDS011;3565;53.254;10.352;2022-08-21T07:19:46;6.17;;;2.30;;
7047;SDS011;3565;53.254;10.352;2022-08-21T07:22:14;4.13;;;2.30;;
7047;SDS011;3565;53.254;10.352;2022-08-21T07:24:46;3.87;;;2.17;;
7047;SDS011;3565;53.254;10.352;2022-08-21T07:27:15;3.07;;;1.93;;
7047;SDS011;3565;53.254;10.352;2022-08-21T07:29:44;4.70;;;2.43;;
7047;SDS011;3565;53.254;10.352;2022-08-21T07:32:13;3.10;;;1.93;;
7047;SDS011;3565;53.254;10.352;2022-08-21T07:34:43;4.20;;;1.90;;
7047;SDS011;3565;53.254;10.352;2022-08-21T07:37:10;3.20;;;1.83;;
7047;SDS011;3565;53.254;10.352;2022-08-21T07:39:39;3.20;;;2.00;;
7047;SDS011;3565;53.254;10.352;2022-08-21T07:42:08;3.73;;;1.87;;
7047;SDS011;3565;53.254;10.352;2022-08-21T07:44:37;3.40;;;1.80;;
7047;SDS011;3565;53.254;10.352;2022-08-21T07:47:06;2.90;;;1.77;;
7047;SDS011;3565;53.254;10.352;2022-08-21T07:49:35;4.33;;;1.90;;
7047;SDS011;3565;53.254;10.352;2022-08-21T07:52:03;2.50;;;1.90;;
7047;SDS011;3565;53.254;10.352;2022-08-21T07:54:32;4.23;;;2.03;;
7047;SDS011;3565;53.254;10.352;2022-08-21T07:57:01;2.47;;;1.90;;
7047;SDS011;3565;53.254;10.352;2022-08-21T07:59:31;3.60;;;2.00;;
7047;SDS011;3565;53.254;10.352;2022-08-21T08:01:59;4.83;;;2.00;;
7047;SDS011;3565;53.254;10.352;2022-08-21T08:04:28;3.43;;;2.00;;
7047;SDS011;3565;53.254;10.352;2022-08-21T08:06:57;5.33;;;2.10;;
7047;SDS011;3565;53.254;10.352;2022-08-21T08:09:26;4.63;;;2.03;;
7047;SDS011;3565;53.254;10.352;2022-08-21T08:11:55;3.47;;;2.10;;
7047;SDS011;3565;53.254;10.352;2022-08-21T08:14:24;3.40;;;1.90;;
7047;SDS011;3565;53.254;10.352;2022-08-21T08:16:53;4.40;;;2.10;;
7047;SDS011;3565;53.254;10.352;2022-08-21T08:19:22;4.13;;;3.07;;
7047;SDS011;3565;53.254;10.352;2022-08-21T08:21:51;4.70;;;3.27;;
7047;SDS011;3565;53.254;10.352;2022-08-21T08:24:20;5.05;;;3.10;;
7047;SDS011;3565;53.254;10.352;2022-08-21T08:26:49;4.00;;;3.02;;
7047;SDS011;3565;53.254;10.352;2022-08-21T08:29:19;6.55;;;3.12;;
7047;SDS011;3565;53.254;10.352;2022-08-21T08:31:48;6.50;;;2.90;;
7047;SDS011;3565;53.254;10.352;2022-08-21T08:34:17;4.92;;;2.75;;
7047;SDS011;3565;53.254;10.352;2022-08-21T08:36:47;4.75;;;2.70;;
7047;SDS011;3565;53.254;10.352;2022-08-21T08:39:16;5.22;;;2.65;;
7047;SDS011;3565;53.254;10.352;2022-08-21T08:41:45;4.03;;;2.33;;
7047;SDS011;3565;53.254;10.352;2022-08-21T08:44:17;4.55;;;2.05;;
7047;SDS011;3565;53.254;10.352;2022-08-21T08:46:47;3.87;;;2.20;;
7047;SDS011;3565;53.254;10.352;2022-08-21T08:49:18;3.75;;;2.10;;
7047;SDS011;3565;53.254;10.352;2022-08-21T08:51:50;5.13;;;1.93;;
7047;SDS011;3565;53.254;10.352;2022-08-21T08:54:24;3.08;;;1.90;;
7047;SDS011;3565;53.254;10.352;2022-08-21T08:56:55;2.62;;;1.65;;
7047;SDS011;3565;53.254;10.352;2022-08-21T08:59:26;3.02;;;1.75;;
7047;SDS011;3565;53.254;10.352;2022-08-21T09:01:57;3.27;;;1.70;;
7047;SDS011;3565;53.254;10.352;2022-08-21T09:04:26;3.42;;;1.85;;
7047;SDS011;3565;53.254;10.352;2022-08-21T09:07:01;3.35;;;2.10;;
7047;SDS011;3565;53.254;10.352;2022-08-21T09:09:39;4.28;;;2.05;;
7047;SDS011;3565;53.254;10.352;2022-08-21T09:12:14;3.85;;;2.12;;
7047;SDS011;3565;53.254;10.352;2022-08-21T09:14:50;3.50;;;2.22;;
7047;SDS011;3565;53.254;10.352;2022-08-21T09:17:19;5.72;;;2.30;;
7047;SDS011;3565;53.254;10.352;2022-08-21T09:19:56;5.00;;;2.40;;
7047;SDS011;3565;53.254;10.352;2022-08-21T09:22:27;2.70;;;1.90;;
7047;SDS011;3565;53.254;10.352;2022-08-21T09:25:01;4.47;;;2.10;;
7047;SDS011;3565;53.254;10.352;2022-08-21T09:27:34;4.57;;;2.30;;
7047;SDS011;3565;53.254;10.352;2022-08-21T09:30:04;5.97;;;2.07;;
7047;SDS011;3565;53.254;10.352;2022-08-21T09:32:36;3.10;;;1.90;;
7047;SDS011;3565;53.254;10.352;2022-08-21T09:35:09;5.47;;;2.50;;
7047;SDS011;3565;53.254;10.352;2022-08-21T09:37:48;3.55;;;2.02;;
7047;SDS011;3565;53.254;10.352;2022-08-21T09:40:23;5.87;;;2.75;;
7047;SDS011;3565;53.254;10.352;2022-08-21T09:43:01;6.30;;;2.20;;
7047;SDS011;3565;53.254;10.352;2022-08-21T09:45:34;4.47;;;2.40;;
7047;SDS011;3565;53.254;10.352;2022-08-21T09:48:09;3.42;;;1.90;;
7047;SDS011;3565;53.254;10.352;2022-08-21T09:50:37;4.60;;;2.17;;
7047;SDS011;3565;53.254;10.352;2022-08-21T09:53:14;6.07;;;2.20;;
7047;SDS011;3565;53.254;10.352;2022-08-21T09:55:38;7.03;;;2.63;;
7047;SDS011;3565;53.254;10.352;2022-08-21T10:01:21;6.43;;;2.37;;
7047;SDS011;3565;53.254;10.352;2022-08-21T10:04:02;4.03;;;2.20;;
7047;SDS011;3565;53.254;10.352;2022-08-21T10:06:32;4.73;;;2.10;;
7047;SDS011;3565;53.254;10.352;2022-08-21T10:09:05;8.53;;;2.67;;
7047;SDS011;3565;53.254;10.352;2022-08-21T10:11:36;5.97;;;2.40;;
7047;SDS011;3565;53.254;10.352;2022-08-21T10:14:09;6.37;;;2.50;;
7047;SDS011;3565;53.254;10.352;2022-08-21T10:16:44;5.90;;;2.40;;
7047;SDS011;3565;53.254;10.352;2022-08-21T10:19:20;6.60;;;2.90;;
7047;SDS011;3565;53.254;10.352;2022-08-21T10:21:55;6.03;;;2.70;;
7047;SDS011;3565;53.254;10.352;2022-08-21T10:24:32;5.43;;;2.40;;
7047;SDS011;3565;53.254;10.352;2022-08-21T10:27:08;6.47;;;2.70;;
7047;SDS011;3565;53.254;10.352;2022-08-21T10:29:45;4.90;;;2.60;;
7047;SDS011;3565;53.254;10.352;2022-08-21T10:32:15;6.40;;;2.47;;
7047;SDS011;3565;53.254;10.352;2022-08-21T10:34:51;7.23;;;2.60;;
7047;SDS011;3565;53.254;10.352;2022-08-21T10:37:24;7.07;;;2.80;;
7047;SDS011;3565;53.254;10.352;2022-08-21T10:39:57;5.90;;;2.50;;
7047;SDS011;3565;53.254;10.352;2022-08-21T10:42:35;5.50;;;2.50;;
7047;SDS011;3565;53.254;10.352;2022-08-21T10:45:09;4.97;;;2.80;;
7047;SDS011;3565;53.254;10.352;2022-08-21T10:47:46;5.93;;;2.90;;
7047;SDS011;3565;53.254;10.352;2022-08-21T10:50:22;7.10;;;2.60;;
7047;SDS011;3565;53.254;10.352;2022-08-21T10:53:02;5.28;;;2.80;;
7047;SDS011;3565;53.254;10.352;2022-08-21T10:55:36;4.42;;;2.40;;
7047;SDS011;3565;53.254;10.352;2022-08-21T10:58:09;4.20;;;2.15;;
7047;SDS011;3565;53.254;10.352;2022-08-21T11:00:41;3.60;;;2.02;;
7047;SDS011;3565;53.254;10.352;2022-08-21T11:03:21;8.85;;;2.60;;
7047;SDS011;3565;53.254;10.352;2022-08-21T11:05:54;3.85;;;2.25;;
7047;SDS011;3565;53.254;10.352;2022-08-21T11:08:26;6.62;;;2.70;;
7047;SDS011;3565;53.254;10.352;2022-08-21T11:10:59;4.47;;;2.10;;
7047;SDS011;3565;53.254;10.352;2022-08-21T11:13:38;5.05;;;2.40;;
7047;SDS011;3565;53.254;10.352;2022-08-21T11:16:14;3.47;;;2.35;;
7047;SDS011;3565;53.254;10.352;2022-08-21T11:18:45;2.87;;;2.02;;
7047;SDS011;3565;53.254;10.352;2022-08-21T11:21:24;4.00;;;2.02;;
7047;SDS011;3565;53.254;10.352;2022-08-21T11:23:59;3.85;;;2.22;;
7047;SDS011;3565;53.254;10.352;2022-08-21T11:26:32;7.03;;;2.50;;
7047;SDS011;3565;53.254;10.352;2022-08-21T11:29:04;3.17;;;2.00;;
7047;SDS011;3565;53.254;10.352;2022-08-21T11:31:38;3.47;;;1.83;;
7047;SDS011;3565;53.254;10.352;2022-08-21T11:34:14;2.92;;;2.00;;
7047;SDS011;3565;53.254;10.352;2022-08-21T11:36:50;3.27;;;1.90;;
7047;SDS011;3565;53.254;10.352;2022-08-21T11:39:22;5.05;;;2.12;;
7047;SDS011;3565;53.254;10.352;2022-08-21T11:42:02;4.95;;;2.20;;
7047;SDS011;3565;53.254;10.352;2022-08-21T11:44:30;3.65;;;2.15;;
7047;SDS011;3565;53.254;10.352;2022-08-21T11:47:03;3.08;;;2.00;;
7047;SDS011;3565;53.254;10.352;2022-08-21T11:49:45;4.10;;;2.08;;
7047;SDS011;3565;53.254;10.352;2022-08-21T11:52:18;4.53;;;2.20;;
7047;SDS011;3565;53.254;10.352;2022-08-21T11:54:49;2.58;;;1.75;;
7047;SDS011;3565;53.254;10.352;2022-08-21T11:57:22;4.03;;;2.02;;
7047;SDS011;3565;53.254;10.352;2022-08-21T11:59:55;3.07;;;1.70;;
7047;SDS011;3565;53.254;10.352;2022-08-21T12:02:29;3.75;;;1.70;;
7047;SDS011;3565;53.254;10.352;2022-08-21T12:05:02;3.10;;;1.82;;
7047;SDS011;3565;53.254;10.352;2022-08-21T12:07:31;3.20;;;1.85;;
7047;SDS011;3565;53.254;10.352;2022-08-21T12:10:05;3.72;;;1.72;;
7047;SDS011;3565;53.254;10.352;2022-08-21T12:12:37;2.30;;;1.67;;
7047;SDS011;3565;53.254;10.352;2022-08-21T12:15:16;2.98;;;1.92;;
7047;SDS011;3565;53.254;10.352;2022-08-21T12:17:55;4.35;;;2.20;;
7047;SDS011;3565;53.254;10.352;2022-08-21T12:20:38;2.42;;;2.00;;
7047;SDS011;3565;53.254;10.352;2022-08-21T12:23:23;3.95;;;1.77;;
7047;SDS011;3565;53.254;10.352;2022-08-21T12:28:49;2.85;;;1.75;;
7047;SDS011;3565;53.254;10.352;2022-08-21T12:31:20;2.70;;;1.80;;
7047;SDS011;3565;53.254;10.352;2022-08-21T12:33:52;2.35;;;1.57;;
7047;SDS011;3565;53.254;10.352;2022-08-21T12:36:24;2.95;;;2.05;;
7047;SDS011;3565;53.254;10.352;2022-08-21T12:38:58;2.90;;;1.75;;
7047;SDS011;3565;53.254;10.352;2022-08-21T12:41:30;2.35;;;1.45;;
7047;SDS011;3565;53.254;10.352;2022-08-21T12:44:02;3.70;;;1.70;;
7047;SDS011;3565;53.254;10.352;2022-08-21T12:46:36;5.12;;;1.80;;
7047;SDS011;3565;53.254;10.352;2022-08-21T12:49:08;2.27;;;1.52;;
7047;SDS011;3565;53.254;10.352;2022-08-21T12:51:45;2.85;;;1.57;;
7047;SDS011;3565;53.254;10.352;2022-08-21T12:54:25;2.47;;;1.85;;
7047;SDS011;3565;53.254;10.352;2022-08-21T12:56:59;5.30;;;2.05;;
7047;SDS011;3565;53.254;10.352;2022-08-21T12:59:30;3.20;;;1.60;;
7047;SDS011;3565;53.254;10.352;2022-08-21T13:02:00;4.50;;;1.85;;
7047;SDS011;3565;53.254;10.352;2022-08-21T13:04:34;3.65;;;1.80;;
7047;SDS011;3565;53.254;10.352;2022-08-21T13:09:46;2.95;;;1.35;;
7047;SDS011;3565;53.254;10.352;2022-08-21T13:12:16;3.75;;;1.70;;
7047;SDS011;3565;53.254;10.352;2022-08-21T13:14:47;2.55;;;1.70;;
7047;SDS011;3565;53.254;10.352;2022-08-21T13:17:19;2.60;;;1.40;;
7047;SDS011;3565;53.254;10.352;2022-08-21T13:19:53;2.50;;;1.50;;
7047;SDS011;3565;53.254;10.352;2022-08-21T13:22:23;3.12;;;1.50;;
7047;SDS011;3565;53.254;10.352;2022-08-21T13:24:53;2.95;;;1.70;;
7047;SDS011;3565;53.254;10.352;2022-08-21T13:27:24;2.05;;;1.50;;
7047;SDS011;3565;53.254;10.352;2022-08-21T13:30:04;2.33;;;1.70;;
7047;SDS011;3565;53.254;10.352;2022-08-21T13:32:39;3.80;;;1.50;;
7047;SDS011;3565;53.254;10.352;2022-08-21T13:35:14;2.98;;;1.52;;
7047;SDS011;3565;53.254;10.352;2022-08-21T13:37:44;7.05;;;1.57;;
7047;SDS011;3565;53.254;10.352;2022-08-21T13:40:16;3.77;;;1.70;;
7047;SDS011;3565;53.254;10.352;2022-08-21T13:42:48;3.90;;;1.70;;
7047;SDS011;3565;53.254;10.352;2022-08-21T13:45:22;1.92;;;1.40;;
7047;SDS011;3565;53.254;10.352;2022-08-21T13:47:53;3.77;;;1.80;;
7047;SDS011;3565;53.254;10.352;2022-08-21T13:50:23;3.35;;;1.70;;
7047;SDS011;3565;53.254;10.352;2022-08-21T13:52:58;3.50;;;1.65;;
7047;SDS011;3565;53.254;10.352;2022-08-21T13:55:37;3.72;;;1.60;;
7047;SDS011;3565;53.254;10.352;2022-08-21T13:58:08;2.83;;;1.77;;
7047;SDS011;3565;53.254;10.352;2022-08-21T14:00:44;3.25;;;1.50;;
7047;SDS011;3565;53.254;10.352;2022-08-21T14:03:23;2.08;;;1.40;;
7047;SDS011;3565;53.254;10.352;2022-08-21T14:05:45;4.72;;;1.80;;
7047;SDS011;3565;53.254;10.352;2022-08-21T14:08:28;2.17;;;1.53;;
7047;SDS011;3565;53.254;10.352;2022-08-21T14:10:56;3.92;;;2.00;;
7047;SDS011;3565;53.254;10.352;2022-08-21T14:13:33;3.15;;;1.60;;
7047;SDS011;3565;53.254;10.352;2022-08-21T14:16:11;3.52;;;1.98;;
7047;SDS011;3565;53.254;10.352;2022-08-21T14:18:47;2.83;;;1.60;;
7047;SDS011;3565;53.254;10.352;2022-08-21T14:21:27;3.77;;;2.00;;
7047;SDS011;3565;53.254;10.352;2022-08-21T14:24:06;4.00;;;2.30;;
7047;SDS011;3565;53.254;10.352;2022-08-21T14:26:43;2.70;;;1.90;;
7047;SDS011;3565;53.254;10.352;2022-08-21T14:29:12;2.60;;;1.80;;
7047;SDS011;3565;53.254;10.352;2022-08-21T14:31:43;3.37;;;2.03;;
7047;SDS011;3565;53.254;10.352;2022-08-21T14:34:17;3.70;;;2.20;;
7047;SDS011;3565;53.254;10.352;2022-08-21T14:36:47;2.63;;;1.50;;
7047;SDS011;3565;53.254;10.352;2022-08-21T14:39:18;2.60;;;1.70;;
7047;SDS011;3565;53.254;10.352;2022-08-21T14:41:46;3.77;;;2.00;;
7047;SDS011;3565;53.254;10.352;2022-08-21T14:44:16;5.87;;;1.93;;
7047;SDS011;3565;53.254;10.352;2022-08-21T14:46:46;4.70;;;1.70;;
7047;SDS011;3565;53.254;10.352;2022-08-21T14:49:15;2.87;;;1.85;;
7047;SDS011;3565;53.254;10.352;2022-08-21T14:51:44;4.03;;;2.00;;
7047;SDS011;3565;53.254;10.352;2022-08-21T14:54:13;4.17;;;2.30;;
7047;SDS011;3565;53.254;10.352;2022-08-21T14:56:42;3.52;;;1.80;;
7047;SDS011;3565;53.254;10.352;2022-08-21T14:59:11;2.60;;;1.72;;
7047;SDS011;3565;53.254;10.352;2022-08-21T15:01:40;3.50;;;1.70;;
7047;SDS011;3565;53.254;10.352;2022-08-21T15:04:09;3.87;;;2.05;;
7047;SDS011;3565;53.254;10.352;2022-08-21T15:06:38;3.40;;;1.80;;
7047;SDS011;3565;53.254;10.352;2022-08-21T15:09:07;4.05;;;1.80;;
7047;SDS011;3565;53.254;10.352;2022-08-21T15:11:36;2.55;;;1.75;;
7047;SDS011;3565;53.254;10.352;2022-08-21T15:14:07;3.15;;;1.80;;
7047;SDS011;3565;53.254;10.352;2022-08-21T15:16:36;3.05;;;1.98;;
7047;SDS011;3565;53.254;10.352;2022-08-21T15:19:05;3.85;;;1.90;;
7047;SDS011;3565;53.254;10.352;2022-08-21T15:21:34;3.47;;;2.03;;
7047;SDS011;3565;53.254;10.352;2022-08-21T15:24:04;3.73;;;2.17;;
7047;SDS011;3565;53.254;10.352;2022-08-21T15:26:33;5.43;;;2.20;;
7047;SDS011;3565;53.254;10.352;2022-08-21T15:29:03;6.03;;;2.00;;
7047;SDS011;3565;53.254;10.352;2022-08-21T15:31:32;2.80;;;1.90;;